LECO Airport Information

Runway Information
Runway 03 Length 6358 ft width 148 ft
Elevation 327 ft Threshold 0 ft Heading 31
Runway 21 Length 6358 ft Width 148 ft
Elevation 286 ft Threshold 0 ft Heading 211
Airport Frequencies
Type APP Name SANTIAGO A Frequency 120.2 MHZ
Type GND Name GND Frequency 121.7 MHZ
Type TWR Name A Coruña T Frequency 118.3 MHZ
Airport Navaids
Type NDB Name La Coruna Frequency 401 KHZ
Type VOR-DME Name La Coruna Frequency 115100 KHZ
Airport Weather Information & NOTAM
ADDS - METARS form results

(0915 UTC 26 November 2020)
Data provider http://aviationweather.gov/metar/data/
 
METAR text: LECO 260900Z VRB01KT 0600 R21/0900D R03/0750D BCFG FEW001 09/09 Q1009 BECMG 1500 BCFG
Conditions at: LECO (LA CORUNA/ALVEDR, ES) observed 0900 UTC 26 November 2020
Temperature: 9.0°C (48°F)
Dewpoint: 9.0°C (48°F) [RH = 100%]
Pressure (altimeter): 29.79 inches Hg (1009.0 mb)
Winds: variable direction winds at 1 MPH (1 knots; 0.5 m/s)
Visibility: 0.37 miles (0.60 km)
Ceiling: at least 12,000 feet AGL
Clouds: few clouds at 100 feet AGL
Weather: BCFG  (patches of fog)

METAR text: LECO 260830Z 18004KT 0350 R21/0650D R03/0550D FG FEW001 09/09 Q1009 BECMG 1500 BCFG
Conditions at: LECO (LA CORUNA/ALVEDR, ES) observed 0830 UTC 26 November 2020
Temperature: 9.0°C (48°F)
Dewpoint: 9.0°C (48°F) [RH = 100%]
Pressure (altimeter): 29.79 inches Hg (1009.0 mb)
Winds: from the S (180 degrees) at 5 MPH (4 knots; 2.1 m/s)
Visibility: 0.22 miles (0.35 km)
Ceiling: at least 12,000 feet AGL
Clouds: few clouds at 100 feet AGL
Weather: FG  (fog)

Forecast for: LECO (LA CORUNA/ALVEDR, ES)
Text: TAF LECO 260800Z 2609/2709 VRB05KT 8000 SCT015 BKN025 TX16/2614Z TN07/2706Z
Forecast period: 0900 UTC 26 November 2020 to 0900 UTC 27 November 2020
Forecast type: FROM: standard forecast or significant change
Winds: variable direction winds at 6 MPH (5 knots; 2.6 m/s)
Visibility: 5 miles (8 km)
Ceiling: 2500 feet AGL
Clouds: scattered clouds at 1500 feet AGL
broken clouds at 2500 feet AGL
Weather: no significant weather forecast for this period
Text: PROB40
Forecast period: 0900 to 1000 UTC 26 November 2020
Forecast type: TEMPORARY: The following changes expected for less than half the time period
Visibility: 1.86 miles (2.99 km)
Ceiling: unknown
Clouds: missing
Weather: BR  (mist)
Text: TEMPO 2609/2610 3000 BR
Forecast period: 0900 to 1000 UTC 26 November 2020
Forecast type: TEMPORARY: The following changes expected for less than half the time period
Visibility: 0.93 miles (1.50 km)
Ceiling: unknown
Clouds: missing
Weather: BCFG  (patches of fog)
Text: PROB30
Forecast period: 0000 to 0700 UTC 27 November 2020
Forecast type: PROBABLE: 30 percent likelihood of the following during this time
Visibility: 0.93 miles (1.50 km)
Ceiling: 100 feet AGL
Clouds: broken clouds at 100 feet AGL
Weather: BCFG  (patches of fog)